XJC1406 LEST-ESNZ
Flight info
| Callsign | XJC1406 |
|---|---|
| Flight time | N/A |
| Altitude | 34000 |
| Route | ROXER DCT LOTEE DCT POZOF DCT JSY UM189 EPATI UM184 PILIP UN6 TELTU/N0475F350 UM185 DIGSU N866 BANEM M604 GIVPO DCT TOPPA DCT SUTEB DCT OKMAM P850 DANKO M604 SVA M609 RIPAM DCT LILBA DCT DIBVA DCT LUHIQ |
| Aircraft | B772/H-SDE2E3FGHIJ5LORVWXY/LB1D1 |
Departure
| Time | 2026-04-26 11:18 |
|---|---|
| Airport | Santiago-Rosalía de Castro Airport (LEST) |
Arrival
| Time | N/A |
|---|---|
| Airport | Åre Östersund Airport (ESNZ) |
| Time | Latitude | Longitude | Altitude | Speed | Heading |
|---|---|---|---|---|---|
| 2026-04-26 10:56 | 42.89727 | -8.41877 | 1205 ft | 0 kts | 257° |
| 2026-04-26 11:11 | 42.89729 | -8.41860 | 1205 ft | 1 kts | 267° |
| 2026-04-26 11:12 | 42.89730 | -8.41847 | 1205 ft | 2 kts | 255° |
| 2026-04-26 11:12 | 42.89737 | -8.41829 | 1205 ft | 2 kts | 232° |
| 2026-04-26 11:12 | 42.89746 | -8.41814 | 1205 ft | 2 kts | 218° |
| 2026-04-26 11:12 | 42.89759 | -8.41803 | 1205 ft | 2 kts | 202° |
| 2026-04-26 11:13 | 42.89774 | -8.41797 | 1205 ft | 2 kts | 187° |
| 2026-04-26 11:13 | 42.89789 | -8.41797 | 1205 ft | 2 kts | 172° |
| 2026-04-26 11:13 | 42.89796 | -8.41799 | 1205 ft | 1 kts | 165° |
| 2026-04-26 11:13 | 42.89798 | -8.41799 | 1204 ft | 0 kts | 165° |
| 2026-04-26 11:15 | 42.89762 | -8.41787 | 1205 ft | 9 kts | 168° |
| 2026-04-26 11:15 | 42.89663 | -8.41756 | 1207 ft | 19 kts | 166° |
| 2026-04-26 11:15 | 42.89497 | -8.41701 | 1210 ft | 30 kts | 166° |
| 2026-04-26 11:15 | 42.89279 | -8.41627 | 1214 ft | 31 kts | 166° |
| 2026-04-26 11:16 | 42.89073 | -8.41560 | 1216 ft | 29 kts | 167° |
| 2026-04-26 11:16 | 42.88861 | -8.41487 | 1216 ft | 33 kts | 166° |
| 2026-04-26 11:16 | 42.88636 | -8.41411 | 1214 ft | 33 kts | 166° |
| 2026-04-26 11:16 | 42.88437 | -8.41346 | 1210 ft | 7 kts | 166° |
| 2026-04-26 11:17 | 42.88384 | -8.41316 | 1209 ft | 9 kts | 134° |
| 2026-04-26 11:17 | 42.88379 | -8.41186 | 1207 ft | 19 kts | 71° |
| 2026-04-26 11:17 | 42.88460 | -8.41116 | 1208 ft | 22 kts | 356° |
| 2026-04-26 11:17 | 42.88890 | -8.41266 | 1215 ft | 104 kts | 346° |
| 2026-04-26 11:18 | 42.89846 | -8.41587 | 1214 ft | 174 kts | 348° |
| 2026-04-26 11:18 | 42.91080 | -8.41989 | 1889 ft | 181 kts | 347° |